Main page
METAR-TAF:

METAR-TAF

Airports :

Hammerfest Airport

Hammerfest, Norway

latitude: 70-40N, longitude: 023-40E, elevation: 8 m

Current weather observation

The report was made 25 minutes ago, at 18:20 UTC
Wind 4 kt from the West
Temperature 24°C
Humidity 54%
Pressure 1010 hPa
Visibility 10 km or more
no clouds below 1500 m and no cumulonimbus

METAR: ENHF 231820Z 27004KT CAVOK 24/14 Q1010 RMK WIND 1254FT 19011KT

Time: 20:45 (18:45 UTC)

Forecast

The report was made 1 hour and 45 minutes ago, at 17:00 UTC
Forecast valid from 23 at 18 UTC to 24 at 03 UTC
Wind 8 kt from the South/Southwest
Visibility 10 km or more
Few clouds at a height of 5000 ft
Probability 40% :
Temporary
from 23 at 18 UTC to 23 at 24 UTC
Few clouds at a height of 4000 ft, Cumulonimbus.
Probability 30% :
Temporary
from 24 at 00 UTC to 24 at 03 UTC
Broken clouds at a height of 400 ft

TAF: ENHF 231700Z 2318/2403 20008KT 9999 FEW050 PROB40 TEMPO 2318/2324 FEW040CB PROB30 TEMPO 2400/2403 BKN004

Weather observations and forecasts of more than 4000 airports (METAR and TAF reports).

The available stations are represented by yellow and red dots on the map.

Hover mouse over dot to see the name of the station.

Then click to see weather observations and forecasts.

To change the map : click on the green buttons with a black cross to zoom in, on the green button with a dash to zoom out, or on the green arrows for adjacent maps.


METAR-TAF: